Weather at Conaglen House Airstrip

Public forecast

Using degrees Celsius for public forecast. Weather courtesy of forecast.io.

Closest aviation weather report (METAR) to Conaglen House Airstrip

Report is more than 2 hours old.

Closest report is Oban Airport, 19.2 nm (35.6 km) SSW.

2024/05/22 14:50 (retrieved 4 hours ago)

EGEO 221450Z 35013KT 9999 -RA SCT026 15/12 Q1009

Closest aviation forecast (TAF) to Conaglen House Airstrip

Closest forecast is Glasgow International Airport, 60.2 nm (111.6 km) SSE.

2024/05/22 18:00 (retrieved 56 minutes ago)

TAF EGPF 221659Z 2218/2318 31009KT 9999 SCT025 TEMPO 2218/2224 6000 RA PROB40 TEMPO 2218/2224 3000 +RA BKN008 PROB30 TEMPO 2218/2221 33015G25KT PROB40 TEMPO 2300/2315 7000 -RA BKN014 TEMPO 2315/2318 4000 RADZ BKN014